Terminal Aerodrome Forecast
Issued by NWS

Current Version | Previous Version | Graphics & Text | Print | Product List | Glossary On
Versions: 1 2 3 4 5 6 7 8 9 10 11 12 13 14 15 16 17 18 19 20 21 22 23
480
FTUS41 KILN 191141
TAFLCK
TAF
KLCK 191141Z 1912/2012 27005KT 3SM BR OVC010
     FM191500 26005KT P6SM OVC015
     FM191600 26006KT P6SM BKN025
     FM191700 26006KT P6SM FEW025 SCT050
     FM192000 26006KT P6SM FEW025 SCT200
     FM200400 00000KT P6SM SCT150
     FM201000 00000KT P6SM SCT050=

USA.gov is the U.S. government's official web portal to all federal, state and local government web resources and services.